Aérodrome :
LOGIN :

S'inscrire | Disclaimer

   EN    FR    IT 

 










Légende :    VFR   VFR Marginal   IFR   IFR Intensif   IFR Très Intensif
Visi : 
Plafond : 
>= 8 km
>= 3000ft
5 à 8 km
1000 à 3000 ft
1500m à 5 km
500 à 1000 ft
800 à 1500m
200 à 500 ft
< 800m
< 200 ft
Symboles :   Orages  Brouillard  Fortes neiges  Fortes précipitations  Vent > 20 kt
SIGMETs :   Divers  Orages  Givrage  Turbulence  Onde Orograph.  Cendres Volcan.






- Altitude de l'aérodrome : 584 ft


LFPV - Villacoublay Vélizy

DERNIER METAR :
  • 031030Z AUTO 25008KT 210V290 9999 SCT041 SCT048 BKN056 20/10 Q1021 NOSIG

METARs EXPIRÉS :
  • 031000Z AUTO 27007KT 170V310 9999 FEW033 BKN052 18/10 Q1021 NOSIG
  • 030930Z AUTO 27008KT 210V300 9999 BKN032 BKN041 18/10 Q1021 NOSIG
  • 030900Z AUTO 29009KT 260V320 9999 BKN027 BKN041 17/10 Q1021 NOSIG
  • 030830Z AUTO 27008KT 180V320 9999 BKN022 17/11 Q1021 NOSIG
  • 030800Z AUTO 26007KT 210V290 9999 SCT018 16/11 Q1021

TAF TAF LFPV
Valide du 03 à 09h jusqu'au 04 à 09h UTC


030800Z 0309/0409 31010KT 9999 BKN010
BECMG 0309/0310 BKN015
BECMG 0310/0311 CAVOK



MET'MAP, la Météo Aéronautique d'un coup d'oeil ! - Copyright ORBIFLY Décembre 2007 - Disclaimer

ORBIFLY MET'MAP TEAM :

Programmation & Développement : Alexandra Zaïnal
Sur une idée originale de : Baudouin d'Aumeries
Assistance à la programmation : Marc-Olivier Méhu
Soutien technique & logistique : Manuel Goepfert

Contact : metmap@orbifly.com




SOURCES & CREDITS :

   NOAA